createdAt,value
2023-06-22T01:10:26.836Z,21.01
2023-06-22T01:13:57.472Z,21.00
2023-06-22T01:20:58.273Z,20.89
2023-06-22T01:40:43.729Z,20.51
2023-06-22T02:06:17.678Z,20.07
2023-06-22T02:09:51.509Z,20.04
2023-06-22T02:26:20.510Z,19.71
2023-06-22T02:58:58.588Z,19.03
2023-06-22T03:01:50.949Z,18.98
2023-06-22T03:04:49.953Z,18.90
2023-06-22T03:07:59.773Z,18.85
2023-06-22T03:11:08.420Z,18.88
2023-06-22T03:14:40.898Z,18.91
2023-06-22T03:18:34.320Z,19.05
2023-06-22T03:21:42.495Z,19.13
2023-06-22T03:24:48.190Z,19.19
2023-06-22T03:27:36.846Z,19.28
2023-06-22T03:30:52.864Z,19.29
2023-06-22T03:49:37.321Z,19.63
2023-06-22T04:05:36.292Z,20.08
2023-06-22T04:08:12.694Z,20.13
2023-06-22T04:14:43.384Z,20.26
2023-06-22T04:21:11.283Z,20.33
2023-06-22T04:24:04.788Z,20.36
2023-06-22T04:26:50.623Z,20.44
2023-06-22T04:30:35.118Z,20.61
2023-06-22T04:33:08.519Z,20.73
2023-06-22T04:35:42.354Z,20.77
2023-06-22T04:38:34.059Z,20.95
2023-06-22T04:41:04.664Z,21.12
2023-06-22T04:46:57.049Z,21.12
2023-06-22T04:49:34.871Z,21.14
2023-06-22T04:52:09.056Z,21.16
2023-06-22T04:54:57.449Z,21.13
2023-06-22T05:04:55.068Z,21.33
2023-06-22T05:08:24.625Z,21.30
2023-06-22T05:11:48.225Z,21.47
2023-06-22T05:14:58.649Z,21.62
2023-06-22T05:18:08.345Z,21.67
2023-06-22T05:20:45.504Z,21.63
2023-06-22T05:23:15.856Z,21.64
2023-06-22T05:42:04.645Z,22.28
2023-06-22T05:44:55.251Z,22.55
2023-06-22T06:50:43.234Z,22.53
2023-06-22T06:53:11.428Z,22.78
2023-06-22T07:00:21.996Z,22.96
2023-06-22T07:02:51.368Z,23.07
2023-06-22T07:05:19.576Z,23.19
2023-06-22T07:07:49.151Z,23.29
2023-06-22T07:10:19.260Z,23.44
2023-06-22T07:12:47.855Z,23.61
2023-06-22T07:15:17.879Z,23.79
2023-06-22T07:17:45.384Z,24.14
2023-06-22T07:24:34.727Z,24.41
2023-06-22T07:27:04.517Z,24.59
2023-06-22T07:29:34.125Z,24.86
2023-06-22T07:32:05.655Z,25.11
2023-06-22T07:34:35.088Z,25.41
2023-06-22T07:37:05.491Z,25.75
2023-06-22T07:39:34.852Z,26.04
2023-06-22T07:42:05.849Z,26.46
2023-06-22T07:44:33.749Z,26.87
2023-06-22T07:47:03.638Z,27.11
2023-06-22T07:49:33.243Z,27.13
2023-06-22T07:55:59.665Z,27.14
2023-06-22T07:58:29.947Z,26.72
2023-06-22T08:00:58.409Z,26.56
2023-06-22T08:03:26.480Z,26.49
2023-06-22T08:05:54.604Z,26.70
2023-06-22T08:08:23.833Z,27.28
2023-06-22T08:10:52.133Z,27.15
2023-06-22T08:13:20.311Z,27.33
2023-06-22T08:15:50.730Z,28.44
2023-06-22T08:18:18.830Z,28.93
2023-06-22T08:20:46.462Z,28.67
2023-06-22T08:23:16.928Z,28.68
2023-06-22T08:25:45.436Z,29.91
2023-06-22T08:28:14.054Z,31.38
2023-06-22T08:30:42.878Z,32.80
2023-06-22T08:33:19.824Z,33.73
2023-06-22T08:35:51.220Z,34.14
2023-06-22T08:38:20.592Z,33.07
2023-06-22T08:40:50.983Z,33.16
2023-06-22T08:43:20.590Z,33.95
2023-06-22T08:45:51.832Z,33.87
2023-06-22T08:48:19.758Z,34.04
2023-06-22T08:50:49.985Z,34.34
2023-06-22T08:53:19.918Z,33.79
2023-06-22T08:55:51.587Z,32.34
2023-06-22T08:58:21.956Z,31.61
2023-06-22T09:00:53.012Z,31.84
2023-06-22T09:03:27.870Z,31.72
2023-06-22T09:05:59.759Z,31.44
2023-06-22T09:08:30.476Z,31.49
2023-06-22T09:10:58.406Z,31.67
2023-06-22T09:13:27.159Z,31.06
2023-06-22T09:15:58.554Z,30.78
2023-06-22T09:18:26.685Z,30.70
2023-06-22T09:20:54.350Z,30.76
2023-06-22T09:23:25.617Z,30.62
2023-06-22T09:25:55.567Z,30.96
2023-06-22T09:28:27.505Z,31.12
2023-06-22T09:30:59.989Z,31.31
2023-06-22T09:33:30.607Z,31.56
2023-06-22T09:35:59.646Z,31.62
2023-06-22T09:38:30.738Z,31.84
2023-06-22T09:40:58.956Z,31.99
2023-06-22T09:43:26.666Z,32.40
2023-06-22T09:45:57.012Z,32.86
2023-06-22T09:48:24.950Z,33.25
2023-06-22T09:50:59.920Z,33.41
2023-06-22T09:53:27.807Z,33.61
2023-06-22T09:55:56.108Z,33.66
2023-06-22T09:58:25.811Z,33.51
2023-06-22T10:00:55.166Z,33.29
2023-06-22T10:03:23.844Z,32.86
2023-06-22T10:05:52.796Z,32.45
2023-06-22T10:08:21.275Z,32.25
2023-06-22T10:10:51.823Z,32.26
2023-06-22T10:13:24.999Z,32.40
2023-06-22T10:15:55.440Z,32.29
2023-06-22T10:18:25.974Z,31.91
2023-06-22T10:20:53.697Z,31.77
2023-06-22T10:23:22.392Z,32.18
2023-06-22T10:25:51.851Z,32.63
2023-06-22T10:28:20.679Z,32.93
2023-06-22T10:30:48.531Z,32.98
2023-06-22T10:33:18.869Z,33.24
2023-06-22T10:35:48.592Z,33.42
2023-06-22T10:38:16.097Z,33.55
2023-06-22T10:40:45.045Z,33.64
2023-06-22T10:43:12.596Z,33.91
2023-06-22T10:45:43.253Z,34.11
2023-06-22T10:48:15.291Z,34.10
2023-06-22T10:50:44.351Z,34.12
2023-06-22T10:53:14.632Z,34.32
2023-06-22T10:55:56.189Z,34.42
2023-06-22T10:58:26.452Z,34.38
2023-06-22T11:00:57.348Z,34.33
2023-06-22T11:03:26.699Z,34.29
2023-06-22T11:05:54.970Z,33.90
2023-06-22T11:08:23.580Z,33.45
2023-06-22T11:10:52.205Z,33.52
2023-06-22T11:13:23.047Z,33.59
2023-06-22T11:15:51.401Z,33.74
2023-06-22T11:18:19.714Z,34.11
2023-06-22T11:20:52.117Z,33.96
2023-06-22T11:23:23.565Z,33.57
2023-06-22T11:25:51.957Z,33.52
2023-06-22T11:28:21.391Z,33.55
2023-06-22T11:30:51.250Z,33.59
2023-06-22T11:33:22.561Z,33.40
2023-06-22T11:35:52.797Z,33.33
2023-06-22T11:38:23.792Z,33.53
2023-06-22T11:40:54.005Z,33.80
2023-06-22T11:43:23.031Z,34.02
2023-06-22T11:45:54.465Z,34.24
2023-06-22T11:48:22.569Z,34.45
2023-06-22T11:50:51.924Z,34.70
2023-06-22T11:53:22.366Z,34.75
2023-06-22T11:55:53.150Z,34.88
2023-06-22T11:58:23.179Z,34.86
2023-06-22T12:00:55.047Z,34.81
2023-06-22T12:03:25.570Z,34.82
2023-06-22T12:05:54.968Z,34.40
2023-06-22T12:08:23.821Z,33.81
2023-06-22T12:10:52.783Z,33.48
2023-06-22T12:13:23.301Z,33.22
2023-06-22T12:15:53.362Z,33.02
2023-06-22T12:18:24.552Z,32.81
2023-06-22T12:20:53.857Z,32.64
2023-06-22T12:23:26.443Z,32.99
2023-06-22T12:25:55.827Z,33.29
2023-06-22T12:28:24.220Z,33.56
2023-06-22T12:30:52.594Z,33.82
2023-06-22T12:33:21.919Z,34.03
2023-06-22T12:35:50.888Z,34.23
2023-06-22T12:38:19.331Z,34.43
2023-06-22T12:40:50.227Z,34.48
2023-06-22T12:43:19.334Z,34.32
2023-06-22T12:45:49.014Z,34.11
2023-06-22T12:48:17.732Z,34.27
2023-06-22T12:50:49.494Z,34.53
2023-06-22T12:53:17.398Z,34.25
2023-06-22T12:55:46.184Z,34.19
2023-06-22T12:58:13.915Z,34.34
2023-06-22T13:00:41.663Z,34.45
2023-06-22T13:03:10.015Z,34.34
2023-06-22T13:05:38.137Z,34.19
2023-06-22T13:08:07.409Z,34.01
2023-06-22T13:10:40.384Z,33.76
2023-06-22T13:13:08.520Z,33.37
2023-06-22T13:15:37.603Z,33.26
2023-06-22T13:18:07.796Z,33.10
2023-06-22T13:20:36.203Z,33.19
2023-06-22T13:23:07.541Z,33.38
2023-06-22T13:25:35.788Z,33.66
2023-06-22T13:28:05.534Z,33.87
2023-06-22T13:30:37.617Z,33.81
2023-06-22T13:33:06.350Z,33.84
2023-06-22T13:35:36.878Z,33.77
2023-06-22T13:38:04.802Z,33.76
2023-06-22T13:40:33.673Z,33.84
2023-06-22T13:43:03.393Z,34.10
2023-06-22T13:45:31.735Z,34.25
2023-06-22T13:48:00.226Z,34.02
2023-06-22T13:50:30.995Z,33.81
2023-06-22T13:53:01.576Z,33.77
2023-06-22T13:55:30.022Z,33.69
2023-06-22T13:57:59.008Z,33.53
2023-06-22T14:00:28.998Z,33.52
2023-06-22T14:02:57.737Z,33.38
2023-06-22T14:05:29.317Z,33.33
2023-06-22T14:07:58.310Z,33.33
2023-06-22T14:10:26.636Z,33.36
2023-06-22T14:12:57.202Z,33.32
2023-06-22T14:15:26.779Z,33.34
2023-06-22T14:17:57.765Z,33.54
2023-06-22T14:20:28.501Z,33.55
2023-06-22T14:22:56.913Z,33.52
2023-06-22T14:25:25.362Z,33.48
2023-06-22T14:27:54.668Z,33.58
2023-06-22T14:30:22.772Z,33.66
2023-06-22T14:37:01.205Z,33.71
2023-06-22T14:40:16.726Z,33.67
2023-06-22T14:57:20.934Z,33.04
2023-06-22T15:04:08.694Z,33.17
2023-06-22T15:06:36.928Z,32.89
2023-06-22T15:09:07.375Z,32.63
2023-06-22T15:12:25.213Z,32.63
2023-06-22T15:14:53.996Z,32.34
2023-06-22T15:22:00.811Z,31.89
2023-06-22T15:24:29.603Z,31.58
2023-06-22T15:26:58.089Z,31.49
2023-06-22T15:29:26.324Z,31.68
2023-06-22T15:31:54.716Z,31.71
2023-06-22T15:34:25.444Z,31.85
2023-06-22T15:36:55.504Z,31.95
2023-06-22T15:39:56.824Z,32.13
2023-06-22T15:42:25.720Z,32.21
2023-06-22T15:44:57.616Z,32.18
2023-06-22T15:47:26.137Z,31.95
2023-06-22T15:49:54.442Z,31.72
2023-06-22T15:52:23.687Z,31.77
2023-06-22T15:54:51.773Z,31.73
2023-06-22T15:57:23.540Z,31.72
2023-06-22T15:59:52.273Z,31.60
2023-06-22T16:02:31.829Z,31.47
2023-06-22T16:05:04.044Z,31.47
2023-06-22T16:11:25.165Z,31.72
2023-06-22T16:13:54.559Z,31.71
2023-06-22T16:16:24.399Z,31.54
2023-06-22T16:18:56.158Z,31.36
2023-06-22T16:21:24.494Z,31.32
2023-06-22T16:23:52.873Z,31.32
2023-06-22T16:26:20.855Z,31.13
2023-06-22T16:28:50.047Z,30.94
2023-06-22T16:31:20.477Z,30.85
2023-06-22T16:33:50.434Z,30.64
2023-06-22T16:36:21.126Z,30.59
2023-06-22T16:38:48.646Z,30.42
2023-06-22T16:41:18.243Z,30.13
2023-06-22T16:43:48.818Z,29.84
2023-06-22T16:46:17.815Z,29.66
2023-06-22T16:48:53.121Z,29.61
2023-06-22T16:51:21.836Z,29.66
2023-06-22T16:53:54.009Z,29.68
2023-06-22T16:56:26.126Z,29.63
2023-06-22T16:59:02.797Z,29.51
2023-06-22T17:01:37.161Z,29.38
2023-06-22T17:04:07.962Z,29.19
2023-06-22T17:06:36.698Z,29.03
2023-06-22T17:09:05.423Z,29.09
2023-06-22T17:11:34.924Z,29.12
2023-06-22T17:14:02.966Z,29.07
2023-06-22T17:16:32.976Z,28.87
2023-06-22T17:19:06.439Z,28.75
2023-06-22T17:21:35.532Z,28.78
2023-06-22T17:24:03.580Z,28.62
2023-06-22T17:26:35.148Z,28.52
2023-06-22T17:29:03.704Z,28.46
2023-06-22T17:31:50.864Z,28.38
2023-06-22T17:34:21.636Z,28.21
2023-06-22T17:36:51.948Z,28.10
2023-06-22T17:39:21.031Z,27.98
2023-06-22T17:41:50.241Z,27.90
2023-06-22T17:44:19.809Z,27.76
2023-06-22T17:46:48.950Z,27.61
2023-06-22T17:49:19.060Z,27.56
2023-06-22T17:51:53.979Z,27.50
2023-06-22T17:54:30.430Z,27.47
2023-06-22T17:57:19.782Z,27.44
2023-06-22T17:59:53.558Z,27.38
2023-06-22T18:02:24.487Z,27.19
2023-06-22T18:04:58.019Z,27.02
2023-06-22T18:07:27.629Z,26.88
2023-06-22T18:09:57.139Z,26.76
2023-06-22T18:12:26.973Z,26.63
2023-06-22T18:14:55.221Z,26.49
2023-06-22T18:17:24.869Z,26.41
2023-06-22T18:19:55.609Z,26.29
2023-06-22T18:22:23.398Z,26.27
2023-06-22T18:24:54.297Z,26.19
2023-06-22T18:27:23.583Z,26.15
2023-06-22T18:29:51.590Z,26.09
2023-06-22T18:32:19.149Z,25.94
2023-06-22T18:34:47.023Z,25.74
2023-06-22T18:37:17.675Z,25.57
2023-06-22T18:39:47.280Z,25.45
2023-06-22T18:42:16.926Z,25.36
2023-06-22T18:44:45.147Z,25.27
2023-06-22T18:47:13.148Z,25.13
2023-06-22T18:49:42.263Z,25.06
2023-06-22T18:52:11.276Z,24.99
2023-06-22T18:54:43.127Z,24.85
2023-06-22T18:57:15.026Z,24.61
2023-06-22T18:59:45.818Z,24.43
2023-06-22T19:02:33.527Z,24.26
2023-06-22T19:05:15.182Z,24.14
2023-06-22T19:07:52.267Z,24.02
2023-06-22T19:10:26.208Z,23.93
2023-06-22T19:12:55.280Z,23.86
2023-06-22T19:15:33.997Z,23.81
2023-06-22T19:18:15.186Z,23.70
2023-06-22T19:20:44.665Z,23.48
2023-06-22T19:23:27.948Z,23.22
2023-06-22T19:25:59.510Z,23.00
2023-06-22T19:28:30.565Z,22.84
2023-06-22T19:31:01.325Z,22.73
2023-06-22T19:33:30.969Z,22.69
2023-06-22T19:36:03.415Z,22.64
2023-06-22T19:38:34.595Z,22.61
2023-06-22T19:41:03.886Z,22.60
2023-06-22T19:43:32.092Z,22.54
2023-06-22T19:46:01.250Z,22.49
2023-06-22T19:48:31.224Z,22.40
2023-06-22T19:51:06.601Z,22.24
2023-06-22T19:53:37.041Z,22.07
2023-06-22T19:56:07.606Z,21.87
2023-06-22T19:58:38.831Z,21.62
2023-06-22T20:01:09.745Z,21.53
2023-06-22T20:03:41.058Z,21.48
2023-06-22T20:06:13.002Z,21.40
2023-06-22T20:08:52.252Z,21.34
2023-06-22T20:11:32.576Z,21.30
2023-06-22T20:14:01.875Z,21.22
2023-06-22T20:16:30.751Z,21.17
2023-06-22T20:19:20.192Z,21.13
2023-06-22T20:21:48.894Z,21.06
2023-06-22T20:24:18.419Z,20.97
2023-06-22T20:26:48.949Z,20.86
2023-06-22T20:29:25.375Z,20.70
2023-06-22T20:32:11.000Z,20.62
2023-06-22T20:34:42.463Z,20.53
2023-06-22T20:37:11.555Z,20.39
2023-06-22T20:39:41.777Z,20.24
2023-06-22T20:42:12.816Z,20.11
2023-06-22T20:44:50.117Z,20.06
2023-06-22T20:47:22.988Z,20.00
2023-06-22T20:49:51.966Z,19.92
2023-06-22T20:56:11.108Z,19.78
2023-06-22T20:58:40.416Z,19.78
2023-06-22T21:01:09.416Z,19.78
2023-06-22T21:03:39.897Z,19.76
2023-06-22T21:06:08.619Z,19.75
2023-06-22T21:08:39.513Z,19.72
2023-06-22T21:11:08.851Z,19.67
2023-06-22T21:13:37.593Z,19.56
2023-06-22T21:16:07.407Z,19.46
2023-06-22T21:18:36.029Z,19.35
2023-06-22T21:21:07.316Z,19.30
2023-06-22T21:23:35.924Z,19.29
2023-06-22T21:26:04.104Z,19.29
2023-06-22T21:28:39.157Z,19.32
2023-06-22T21:31:09.332Z,19.32
2023-06-22T21:33:37.822Z,19.31
2023-06-22T21:36:09.128Z,19.34
2023-06-22T21:38:37.659Z,19.38
2023-06-22T21:41:05.477Z,19.38
2023-06-22T21:43:34.559Z,19.36
2023-06-22T21:46:04.024Z,19.34
2023-06-22T21:48:34.613Z,19.27
2023-06-22T21:51:04.495Z,19.24
2023-06-22T21:53:35.961Z,19.20
2023-06-22T21:56:06.318Z,19.09
2023-06-22T21:58:34.051Z,18.99
2023-06-22T22:01:03.735Z,18.93
2023-06-22T22:03:33.227Z,18.91
2023-06-22T22:06:03.890Z,18.89
2023-06-22T22:08:33.654Z,18.85
2023-06-22T22:11:01.256Z,18.85
2023-06-22T22:13:33.005Z,18.82
2023-06-22T22:16:01.001Z,18.79
2023-06-22T22:18:30.201Z,18.78
2023-06-22T22:21:02.650Z,18.74
2023-06-22T22:23:30.564Z,18.73
2023-06-22T22:25:58.612Z,18.71
2023-06-22T22:28:28.799Z,18.68
2023-06-22T22:31:00.228Z,18.58
2023-06-22T22:33:29.528Z,18.56
2023-06-22T22:36:00.074Z,18.52
2023-06-22T22:38:27.654Z,18.47
2023-06-22T22:40:56.427Z,18.39
2023-06-22T22:43:24.216Z,18.32
2023-06-22T22:45:52.058Z,18.20
2023-06-22T22:48:22.858Z,18.10
2023-06-22T22:50:54.370Z,18.07
2023-06-22T22:54:17.248Z,17.98
2023-06-22T22:56:49.390Z,17.93
2023-06-22T22:59:17.523Z,17.88
2023-06-22T23:01:47.280Z,17.78
2023-06-22T23:04:19.117Z,17.71
2023-06-22T23:06:49.328Z,17.67
2023-06-22T23:09:17.573Z,17.65
2023-06-22T23:11:45.465Z,17.59
2023-06-22T23:14:16.176Z,17.59
2023-06-22T23:16:45.085Z,17.60
2023-06-22T23:19:13.806Z,17.59
2023-06-22T23:21:42.484Z,17.61
2023-06-22T23:24:10.509Z,17.62
2023-06-22T23:26:40.162Z,17.63
2023-06-22T23:29:08.697Z,17.67
2023-06-22T23:31:36.921Z,17.68
2023-06-22T23:34:04.987Z,17.57
2023-06-22T23:36:36.918Z,17.48
2023-06-22T23:39:05.843Z,17.46
2023-06-22T23:41:34.417Z,17.49
2023-06-22T23:44:02.832Z,17.48
2023-06-22T23:46:33.493Z,17.45
2023-06-22T23:49:03.096Z,17.42
2023-06-22T23:52:21.092Z,17.39
2023-06-22T23:54:49.312Z,17.38
2023-06-22T23:57:17.604Z,17.37
2023-06-22T23:59:51.326Z,17.30
